createdAt,value
2018-11-11T00:00:31.348Z,0
2018-11-11T00:01:41.205Z,0
2018-11-11T00:02:51.072Z,0
2018-11-11T00:04:00.919Z,0
2018-11-11T00:05:11.060Z,0
2018-11-11T00:06:20.912Z,0
2018-11-11T00:07:31.038Z,0
2018-11-11T00:08:40.892Z,0
2018-11-11T00:09:50.742Z,0
2018-11-11T00:11:00.863Z,0
2018-11-11T00:12:10.712Z,0
2018-11-11T00:13:20.889Z,0
2018-11-11T00:14:30.747Z,0
2018-11-11T00:15:40.886Z,0
2018-11-11T00:16:51.011Z,0
2018-11-11T00:18:01.141Z,0
2018-11-11T00:19:11.292Z,0
2018-11-11T00:20:21.440Z,0
2018-11-11T00:21:31.080Z,0
2018-11-11T00:22:41.222Z,0
2018-11-11T00:23:51.412Z,0
2018-11-11T00:25:01.549Z,0
2018-11-11T00:26:11.404Z,0
2018-11-11T00:27:21.534Z,0
2018-11-11T00:28:31.572Z,0
2018-11-11T00:29:41.708Z,0
2018-11-11T00:30:51.849Z,0
2018-11-11T00:32:01.974Z,0
2018-11-11T00:33:11.826Z,0
2018-11-11T00:34:21.950Z,0
2018-11-11T00:35:32.070Z,0
2018-11-11T00:36:41.648Z,0
2018-11-11T00:37:51.783Z,0
2018-11-11T00:39:01.912Z,0
2018-11-11T00:40:11.775Z,0
2018-11-11T00:41:21.904Z,0
2018-11-11T00:42:32.040Z,0
2018-11-11T00:43:41.889Z,0
2018-11-11T00:44:51.194Z,0
2018-11-11T00:46:01.041Z,0
2018-11-11T00:47:10.616Z,0
2018-11-11T00:48:20.741Z,0
2018-11-11T00:49:30.865Z,0
2018-11-11T00:50:40.165Z,0
2018-11-11T00:51:49.467Z,0
2018-11-11T00:52:59.046Z,0
2018-11-11T00:54:08.621Z,0
2018-11-11T00:55:18.748Z,0
2018-11-11T00:56:28.871Z,0
2018-11-11T00:57:38.720Z,0
2018-11-11T00:58:48.575Z,0
2018-11-11T00:59:58.432Z,0
2018-11-11T01:01:08.015Z,0
2018-11-11T01:02:17.869Z,0
2018-11-11T01:03:28.004Z,0
2018-11-11T01:04:38.138Z,0
2018-11-11T01:05:48.043Z,0
2018-11-11T01:06:57.890Z,0
2018-11-11T01:08:08.032Z,0
2018-11-11T01:09:18.163Z,0
2018-11-11T01:10:28.288Z,0
2018-11-11T01:11:38.418Z,0
2018-11-11T01:12:48.283Z,0
2018-11-11T01:13:57.865Z,0
2018-11-11T01:15:07.721Z,0
2018-11-11T01:16:17.596Z,0
2018-11-11T01:17:27.773Z,0
2018-11-11T01:18:37.618Z,0
2018-11-11T01:19:47.195Z,0
2018-11-11T01:20:57.320Z,0
2018-11-11T01:22:07.451Z,0
2018-11-11T01:23:17.309Z,0
2018-11-11T01:24:27.164Z,0
2018-11-11T01:25:37.295Z,0
2018-11-11T01:26:46.875Z,0
2018-11-11T01:27:57.013Z,0
2018-11-11T01:29:06.594Z,0
2018-11-11T01:30:16.730Z,0
2018-11-11T01:31:26.857Z,0
2018-11-11T01:32:36.707Z,0
2018-11-11T01:33:46.287Z,0
2018-11-11T01:34:56.418Z,0
2018-11-11T01:36:06.553Z,0
2018-11-11T01:37:16.409Z,0
2018-11-11T01:38:26.262Z,0
2018-11-11T01:39:35.573Z,0
2018-11-11T01:40:45.429Z,0
2018-11-11T01:41:55.598Z,0
2018-11-11T01:43:05.728Z,0
2018-11-11T01:44:15.299Z,0
2018-11-11T01:45:25.150Z,0
2018-11-11T01:46:35.270Z,0
2018-11-11T01:47:45.396Z,0
2018-11-11T01:48:55.530Z,0
2018-11-11T01:50:05.385Z,0
2018-11-11T01:51:15.509Z,0
2018-11-11T01:52:25.639Z,0
2018-11-11T01:53:35.767Z,0
2018-11-11T01:54:45.623Z,0
2018-11-11T01:55:55.472Z,0
2018-11-11T01:57:04.770Z,0
2018-11-11T01:58:14.621Z,0
2018-11-11T01:59:24.472Z,0
2018-11-11T02:00:34.601Z,0
2018-11-11T02:01:44.449Z,0
2018-11-11T02:02:54.296Z,0
2018-11-11T02:04:04.426Z,0
2018-11-11T02:05:13.732Z,0
2018-11-11T02:06:23.859Z,0
2018-11-11T02:07:33.979Z,0
2018-11-11T02:08:43.553Z,0
2018-11-11T02:09:54.555Z,0
2018-11-11T02:11:04.764Z,0
2018-11-11T02:12:14.620Z,0
2018-11-11T02:13:24.749Z,0
2018-11-11T02:14:34.601Z,0
2018-11-11T02:15:44.745Z,0
2018-11-11T02:16:55.838Z,0
2018-11-11T02:18:05.416Z,0
2018-11-11T02:19:15.312Z,0
2018-11-11T02:20:25.441Z,0
2018-11-11T02:21:35.496Z,0
2018-11-11T02:22:45.113Z,0
2018-11-11T02:23:54.699Z,0
2018-11-11T02:25:04.831Z,0
2018-11-11T02:26:14.961Z,0
2018-11-11T02:27:24.825Z,0
2018-11-11T02:28:34.685Z,0
2018-11-11T02:29:44.531Z,0
2018-11-11T02:30:54.666Z,0
2018-11-11T02:32:04.520Z,0
2018-11-11T02:33:14.103Z,0
2018-11-11T02:34:24.247Z,0
2018-11-11T02:35:34.377Z,0
2018-11-11T02:36:44.230Z,0
2018-11-11T02:37:54.703Z,0
2018-11-11T02:39:04.855Z,0
2018-11-11T02:40:14.753Z,0
2018-11-11T02:41:24.891Z,0
2018-11-11T02:42:34.754Z,0
2018-11-11T02:43:44.616Z,0
2018-11-11T02:44:54.753Z,0
2018-11-11T02:46:04.334Z,0
2018-11-11T02:47:14.193Z,0
2018-11-11T02:48:24.325Z,0
2018-11-11T02:49:34.193Z,0
2018-11-11T02:50:43.781Z,0
2018-11-11T02:51:53.913Z,0
2018-11-11T02:53:03.782Z,0
2018-11-11T02:54:13.365Z,0
2018-11-11T02:55:23.273Z,0
2018-11-11T02:56:32.855Z,0
2018-11-11T02:57:42.715Z,0
2018-11-11T02:58:52.567Z,0
2018-11-11T03:00:02.695Z,0
2018-11-11T03:01:12.566Z,0
2018-11-11T03:02:22.472Z,0
2018-11-11T03:03:32.325Z,0
2018-11-11T03:04:42.944Z,0
2018-11-11T03:05:52.808Z,0
2018-11-11T03:07:02.668Z,0
2018-11-11T03:08:12.244Z,0
2018-11-11T03:09:22.388Z,0
2018-11-11T03:10:32.269Z,0
2018-11-11T03:11:42.406Z,0
2018-11-11T03:12:52.534Z,0
2018-11-11T03:14:02.714Z,0
2018-11-11T03:15:12.580Z,0
2018-11-11T03:16:22.212Z,0
2018-11-11T03:17:32.334Z,0
2018-11-11T03:18:42.181Z,0
2018-11-11T03:19:52.314Z,0
2018-11-11T03:21:02.165Z,0
2018-11-11T03:22:12.322Z,0
2018-11-11T03:23:22.455Z,0
2018-11-11T03:24:32.611Z,0
2018-11-11T03:25:42.474Z,0
2018-11-11T03:26:52.054Z,0
2018-11-11T03:28:02.183Z,0
2018-11-11T03:29:12.032Z,0
2018-11-11T03:30:22.221Z,0
2018-11-11T03:31:31.824Z,0
2018-11-11T03:32:41.977Z,0
2018-11-11T03:33:52.106Z,0
2018-11-11T03:35:02.237Z,0
2018-11-11T03:36:12.099Z,0
2018-11-11T03:37:22.225Z,0
2018-11-11T03:38:32.351Z,0
2018-11-11T03:39:42.482Z,0
2018-11-11T03:40:52.340Z,0
2018-11-11T03:42:02.475Z,0
2018-11-11T03:43:11.778Z,0
2018-11-11T03:44:21.627Z,0
2018-11-11T03:45:31.759Z,0
2018-11-11T03:46:41.339Z,0
2018-11-11T03:47:51.197Z,0
2018-11-11T03:49:01.339Z,0
2018-11-11T03:50:11.194Z,0
2018-11-11T03:51:21.331Z,0
2018-11-11T03:52:31.179Z,0
2018-11-11T03:53:41.316Z,0
2018-11-11T03:54:51.169Z,0
2018-11-11T03:56:01.019Z,0
2018-11-11T03:57:11.153Z,0
2018-11-11T03:58:20.458Z,0
2018-11-11T03:59:30.037Z,0
2018-11-11T04:00:39.371Z,0
2018-11-11T04:01:49.503Z,0
2018-11-11T04:02:59.639Z,0
2018-11-11T04:04:08.939Z,0
2018-11-11T04:05:18.833Z,0
2018-11-11T04:06:28.960Z,0
2018-11-11T04:07:38.813Z,0
2018-11-11T04:08:48.950Z,0
2018-11-11T04:09:58.526Z,0
2018-11-11T04:11:08.114Z,0
2018-11-11T04:12:17.975Z,0
2018-11-11T04:13:27.560Z,0
2018-11-11T04:14:37.704Z,0
2018-11-11T04:15:47.830Z,0
2018-11-11T04:16:57.413Z,0
2018-11-11T04:18:07.271Z,0
2018-11-11T04:19:17.402Z,0
2018-11-11T04:20:27.265Z,0
2018-11-11T04:21:37.117Z,0
2018-11-11T04:22:46.980Z,0
2018-11-11T04:23:56.557Z,0
2018-11-11T04:25:06.191Z,0
2018-11-11T04:26:16.048Z,0
2018-11-11T04:27:26.191Z,0
2018-11-11T04:28:36.322Z,0
2018-11-11T04:29:46.510Z,0
2018-11-11T04:30:56.647Z,0
2018-11-11T04:32:06.497Z,0
2018-11-11T04:33:16.632Z,0
2018-11-11T04:34:26.486Z,0
2018-11-11T04:35:36.352Z,0
2018-11-11T04:36:46.488Z,0
2018-11-11T04:37:56.079Z,0
2018-11-11T04:39:06.137Z,0
2018-11-11T04:40:16.410Z,0
2018-11-11T04:41:26.001Z,0
2018-11-11T04:42:35.578Z,0
2018-11-11T04:43:45.710Z,0
2018-11-11T04:44:55.568Z,0
2018-11-11T04:46:05.158Z,0
2018-11-11T04:47:15.062Z,0
2018-11-11T04:48:25.202Z,0
2018-11-11T04:49:35.067Z,0
2018-11-11T04:50:45.203Z,0
2018-11-11T04:51:55.055Z,0
2018-11-11T04:53:05.189Z,0
2018-11-11T04:54:15.318Z,0
2018-11-11T04:55:25.314Z,0
2018-11-11T04:56:35.082Z,0
2018-11-11T04:57:45.220Z,0
2018-11-11T04:58:55.374Z,0
2018-11-11T05:00:05.230Z,0
2018-11-11T05:01:15.499Z,0
2018-11-11T05:02:25.360Z,0
2018-11-11T05:03:35.490Z,0
2018-11-11T05:04:46.368Z,0
2018-11-11T05:05:56.253Z,0
2018-11-11T05:07:06.131Z,0
2018-11-11T05:08:15.704Z,0
2018-11-11T05:09:25.562Z,0
2018-11-11T05:10:35.465Z,0
2018-11-11T05:11:45.324Z,0
2018-11-11T05:12:55.454Z,0
2018-11-11T05:14:05.589Z,0
2018-11-11T05:15:15.199Z,0
2018-11-11T05:16:25.333Z,0
2018-11-11T05:17:35.188Z,0
2018-11-11T05:18:45.037Z,0
2018-11-11T05:19:55.163Z,0
2018-11-11T05:21:04.750Z,0
2018-11-11T05:22:14.889Z,0
2018-11-11T05:23:24.757Z,0
2018-11-11T05:24:34.061Z,0
2018-11-11T05:25:43.926Z,0
2018-11-11T05:26:54.063Z,0
2018-11-11T05:28:03.921Z,0
2018-11-11T05:29:14.047Z,0
2018-11-11T05:30:24.191Z,0
2018-11-11T05:31:33.495Z,0
2018-11-11T05:32:43.345Z,0
2018-11-11T05:33:57.843Z,0
2018-11-11T05:35:07.698Z,0
2018-11-11T05:36:17.553Z,0
2018-11-11T05:37:27.419Z,0
2018-11-11T05:38:36.997Z,0
2018-11-11T05:39:46.856Z,0
2018-11-11T05:40:56.723Z,0
2018-11-11T05:42:06.868Z,0
2018-11-11T05:43:17.968Z,0
2018-11-11T05:44:27.551Z,0
2018-11-11T05:45:37.679Z,0
2018-11-11T05:46:47.264Z,0
2018-11-11T05:47:57.397Z,0
2018-11-11T05:49:06.981Z,0
2018-11-11T05:50:16.840Z,0
2018-11-11T05:51:26.693Z,0
2018-11-11T05:52:36.270Z,0
2018-11-11T05:53:46.121Z,0
2018-11-11T05:54:55.983Z,0
2018-11-11T05:56:05.560Z,0
2018-11-11T05:57:15.711Z,0
2018-11-11T05:58:25.568Z,0
2018-11-11T05:59:35.699Z,0
2018-11-11T06:00:45.553Z,0
2018-11-11T06:01:55.132Z,0
2018-11-11T06:03:04.441Z,0
2018-11-11T06:04:14.569Z,0
2018-11-11T06:05:24.704Z,0
2018-11-11T06:06:34.833Z,0
2018-11-11T06:07:44.141Z,0
2018-11-11T06:08:53.994Z,0
2018-11-11T06:10:04.120Z,0
2018-11-11T06:11:14.260Z,0
2018-11-11T06:12:24.123Z,0
2018-11-11T06:13:34.258Z,0
2018-11-11T06:14:44.387Z,0
2018-11-11T06:15:54.571Z,0
2018-11-11T06:17:04.421Z,0
2018-11-11T06:18:14.004Z,0
2018-11-11T06:19:23.855Z,0
2018-11-11T06:20:33.980Z,0
2018-11-11T06:21:44.107Z,0
2018-11-11T06:22:53.964Z,0
2018-11-11T06:24:04.099Z,0
2018-11-11T06:25:13.952Z,0
2018-11-11T06:26:24.096Z,0
2018-11-11T06:27:34.649Z,0
2018-11-11T06:28:44.578Z,0
2018-11-11T06:29:54.717Z,0
2018-11-11T06:31:04.571Z,0
2018-11-11T06:32:14.489Z,0
2018-11-11T06:33:24.353Z,0
2018-11-11T06:34:34.481Z,0
2018-11-11T06:35:44.064Z,0
2018-11-11T06:36:54.200Z,0
2018-11-11T06:38:04.050Z,0
2018-11-11T06:39:13.904Z,0
2018-11-11T06:40:24.036Z,0
2018-11-11T06:41:53.172Z,0
2018-11-11T06:43:03.618Z,0
2018-11-11T06:44:13.752Z,0
2018-11-11T06:45:23.371Z,0
2018-11-11T06:46:33.498Z,0
2018-11-11T06:47:43.345Z,0
2018-11-11T06:48:53.200Z,0
2018-11-11T06:50:02.773Z,0
2018-11-11T06:51:12.897Z,0
2018-11-11T06:52:22.756Z,0
2018-11-11T06:53:32.884Z,0
2018-11-11T06:54:43.016Z,0
2018-11-11T06:55:52.874Z,0
2018-11-11T06:57:03.006Z,0
2018-11-11T06:58:13.636Z,0
2018-11-11T06:59:23.316Z,0
2018-11-11T07:00:33.448Z,0
2018-11-11T07:01:43.580Z,0
2018-11-11T07:02:53.430Z,0
2018-11-11T07:04:03.560Z,0
2018-11-11T07:05:13.428Z,0
2018-11-11T07:06:23.555Z,0
2018-11-11T07:07:33.444Z,0
2018-11-11T07:08:43.588Z,0
2018-11-11T07:09:53.721Z,0
2018-11-11T07:11:03.847Z,0
2018-11-11T07:12:13.762Z,0
2018-11-11T07:13:23.897Z,0
2018-11-11T07:14:33.759Z,0
2018-11-11T07:15:43.609Z,0
2018-11-11T07:16:53.468Z,0
2018-11-11T07:18:03.597Z,0
2018-11-11T07:19:13.175Z,0
2018-11-11T07:20:23.297Z,0
2018-11-11T07:21:33.442Z,0
2018-11-11T07:22:43.578Z,5
2018-11-11T07:23:53.852Z,0
2018-11-11T07:25:03.711Z,5
2018-11-11T07:26:13.296Z,5
2018-11-11T07:27:22.868Z,5
2018-11-11T07:28:32.721Z,5
2018-11-11T07:29:42.575Z,5
2018-11-11T07:30:52.430Z,5
2018-11-11T07:32:02.283Z,5
2018-11-11T07:33:11.859Z,5
2018-11-11T07:34:21.724Z,5
2018-11-11T07:35:31.865Z,5
2018-11-11T07:36:41.997Z,5
2018-11-11T07:37:52.132Z,5
2018-11-11T07:39:01.992Z,5
2018-11-11T07:40:11.843Z,10
2018-11-11T07:41:21.700Z,10
2018-11-11T07:42:32.517Z,10
2018-11-11T07:43:42.444Z,10
2018-11-11T07:44:52.299Z,10
2018-11-11T07:46:01.879Z,10
2018-11-11T07:47:11.506Z,10
2018-11-11T07:48:21.359Z,5
2018-11-11T07:49:31.486Z,5
2018-11-11T07:50:41.631Z,5
2018-11-11T07:51:51.899Z,5
2018-11-11T07:53:02.036Z,5
2018-11-11T07:54:11.617Z,5
2018-11-11T07:55:21.929Z,5
2018-11-11T07:56:31.815Z,5
2018-11-11T07:57:41.674Z,5
2018-11-11T07:58:51.531Z,5
2018-11-11T08:00:01.389Z,5
2018-11-11T08:01:11.554Z,5
2018-11-11T08:02:22.049Z,10
2018-11-11T08:03:32.174Z,10
2018-11-11T08:04:41.806Z,10
2018-11-11T08:05:51.954Z,10
2018-11-11T08:07:02.103Z,5
2018-11-11T08:08:11.680Z,10
2018-11-11T08:09:21.541Z,10
2018-11-11T08:10:31.668Z,10
2018-11-11T08:11:41.259Z,10
2018-11-11T08:12:51.388Z,10
2018-11-11T08:14:01.521Z,10
2018-11-11T08:15:11.103Z,10
2018-11-11T08:16:21.236Z,10
2018-11-11T08:17:31.084Z,10
2018-11-11T08:18:40.938Z,10
2018-11-11T08:19:50.789Z,15
2018-11-11T08:21:00.917Z,15
2018-11-11T08:22:11.056Z,15
2018-11-11T08:23:21.187Z,15
2018-11-11T08:24:30.486Z,15
2018-11-11T08:25:41.060Z,15
2018-11-11T08:26:51.187Z,20
2018-11-11T08:28:01.319Z,20
2018-11-11T08:29:10.895Z,20
2018-11-11T08:30:21.028Z,20
2018-11-11T08:31:31.150Z,20
2018-11-11T08:32:41.002Z,20
2018-11-11T08:33:51.132Z,20
2018-11-11T08:35:00.986Z,20
2018-11-11T08:36:10.839Z,20
2018-11-11T08:37:20.693Z,20
2018-11-11T08:38:30.868Z,20
2018-11-11T08:39:40.722Z,20
2018-11-11T08:40:51.081Z,20
2018-11-11T08:42:01.210Z,25
2018-11-11T08:43:11.361Z,25
2018-11-11T08:44:21.494Z,20
2018-11-11T08:45:31.626Z,20
2018-11-11T08:46:41.488Z,25
2018-11-11T08:47:51.336Z,25
2018-11-11T08:49:01.192Z,30
2018-11-11T08:50:11.051Z,30
2018-11-11T08:51:21.171Z,35
2018-11-11T08:52:31.304Z,35
2018-11-11T08:53:41.155Z,35
2018-11-11T08:54:51.004Z,35
2018-11-11T08:56:01.130Z,40
2018-11-11T08:57:10.981Z,40
2018-11-11T08:58:21.153Z,40
2018-11-11T08:59:31.010Z,45
2018-11-11T09:00:40.605Z,40
2018-11-11T09:01:50.469Z,45
2018-11-11T09:03:00.598Z,45
2018-11-11T09:04:10.730Z,45
2018-11-11T09:05:20.876Z,45
2018-11-11T09:06:31.002Z,50
2018-11-11T09:07:40.856Z,50
2018-11-11T09:08:50.998Z,50
2018-11-11T09:10:00.853Z,45
2018-11-11T09:11:11.000Z,45
2018-11-11T09:12:21.137Z,55
2018-11-11T09:13:30.989Z,60
2018-11-11T09:14:40.842Z,60
2018-11-11T09:15:50.968Z,50
2018-11-11T09:17:00.824Z,40
2018-11-11T09:18:10.953Z,40
2018-11-11T09:19:21.078Z,35
2018-11-11T09:20:31.205Z,35
2018-11-11T09:21:41.763Z,30
2018-11-11T09:22:51.663Z,35
2018-11-11T09:24:02.010Z,40
2018-11-11T09:25:11.588Z,40
2018-11-11T09:26:21.475Z,40
2018-11-11T09:27:31.331Z,40
2018-11-11T09:28:41.461Z,45
2018-11-11T09:29:52.069Z,45
2018-11-11T09:31:02.192Z,45
2018-11-11T09:32:12.054Z,45
2018-11-11T09:33:21.907Z,50
2018-11-11T09:34:31.762Z,50
2018-11-11T09:35:41.623Z,50
2018-11-11T09:36:51.480Z,55
2018-11-11T09:38:01.062Z,55
2018-11-11T09:39:11.150Z,55
2018-11-11T09:40:21.312Z,60
2018-11-11T09:41:31.442Z,60
2018-11-11T09:42:41.832Z,60
2018-11-11T09:43:52.072Z,65
2018-11-11T09:45:01.929Z,60
2018-11-11T09:46:12.058Z,60
2018-11-11T09:47:22.191Z,60
2018-11-11T09:48:31.766Z,60
2018-11-11T09:49:41.616Z,65
2018-11-11T09:50:51.755Z,65
2018-11-11T09:52:01.878Z,65
2018-11-11T09:53:11.733Z,70
2018-11-11T09:54:21.864Z,75
2018-11-11T09:55:31.443Z,75
2018-11-11T09:56:41.589Z,75
2018-11-11T09:57:51.721Z,75
2018-11-11T09:59:01.580Z,75
2018-11-11T10:00:11.170Z,70
2018-11-11T10:01:21.309Z,60
2018-11-11T10:02:31.442Z,60
2018-11-11T10:03:41.020Z,60
2018-11-11T10:04:51.366Z,65
2018-11-11T10:06:01.505Z,70
2018-11-11T10:07:12.283Z,70
2018-11-11T10:08:22.508Z,80
2018-11-11T10:09:32.092Z,90
2018-11-11T10:10:42.225Z,95
2018-11-11T10:11:52.354Z,90
2018-11-11T10:13:02.737Z,85
2018-11-11T10:14:12.321Z,85
2018-11-11T10:15:21.908Z,85
2018-11-11T10:16:31.764Z,90
2018-11-11T10:17:41.614Z,95
2018-11-11T10:18:51.746Z,105
2018-11-11T10:20:01.775Z,105
2018-11-11T10:21:11.659Z,95
2018-11-11T10:22:21.794Z,85
2018-11-11T10:23:31.936Z,75
2018-11-11T10:24:42.067Z,70
2018-11-11T10:25:51.916Z,75
2018-11-11T10:27:01.821Z,75
2018-11-11T10:28:11.381Z,65
2018-11-11T10:29:21.651Z,70
2018-11-11T10:30:31.592Z,75
2018-11-11T10:31:41.723Z,70
2018-11-11T10:32:51.574Z,65
2018-11-11T10:34:01.157Z,70
2018-11-11T10:35:11.294Z,65
2018-11-11T10:36:21.437Z,60
2018-11-11T10:37:32.184Z,55
2018-11-11T10:38:41.921Z,50
2018-11-11T10:39:52.052Z,50
2018-11-11T10:41:01.903Z,50
2018-11-11T10:42:12.058Z,50
2018-11-11T10:43:22.185Z,50
2018-11-11T10:44:32.301Z,45
2018-11-11T10:45:42.322Z,45
2018-11-11T10:46:52.452Z,50
2018-11-11T10:48:02.458Z,50
2018-11-11T10:49:12.599Z,55
2018-11-11T10:50:22.510Z,65
2018-11-11T10:51:32.362Z,70
2018-11-11T10:52:42.487Z,80
2018-11-11T10:53:52.670Z,80
2018-11-11T10:55:02.517Z,75
2018-11-11T10:56:11.819Z,75
2018-11-11T10:57:21.670Z,75
2018-11-11T10:58:31.522Z,70
2018-11-11T10:59:41.429Z,65
2018-11-11T11:00:51.009Z,60
2018-11-11T11:02:01.141Z,55
2018-11-11T11:03:10.726Z,50
2018-11-11T11:04:20.589Z,55
2018-11-11T11:05:30.773Z,55
2018-11-11T11:06:40.630Z,60
2018-11-11T11:07:50.764Z,60
2018-11-11T11:09:00.887Z,55
2018-11-11T11:10:11.035Z,55
2018-11-11T11:11:20.945Z,55
2018-11-11T11:12:30.804Z,50
2018-11-11T11:13:41.453Z,50
2018-11-11T11:14:51.294Z,45
2018-11-11T11:16:01.142Z,45
2018-11-11T11:17:10.770Z,40
2018-11-11T11:18:20.627Z,40
2018-11-11T11:19:30.203Z,40
2018-11-11T11:20:40.325Z,40
2018-11-11T11:21:50.177Z,40
2018-11-11T11:23:00.129Z,40
2018-11-11T11:24:10.283Z,40
2018-11-11T11:25:20.424Z,40
2018-11-11T11:26:30.555Z,50
2018-11-11T11:27:40.683Z,55
2018-11-11T11:28:50.591Z,55
2018-11-11T11:30:00.438Z,55
2018-11-11T11:31:10.294Z,55
2018-11-11T11:32:20.061Z,50
2018-11-11T11:33:29.686Z,50
2018-11-11T11:34:39.585Z,50
2018-11-11T11:35:50.371Z,50
2018-11-11T11:37:00.590Z,55
2018-11-11T11:38:11.015Z,55
2018-11-11T11:39:20.848Z,55
2018-11-11T11:40:31.019Z,50
2018-11-11T11:41:41.162Z,50
2018-11-11T11:42:50.735Z,50
2018-11-11T11:44:00.811Z,50
2018-11-11T11:45:11.011Z,45
2018-11-11T11:46:20.639Z,45
2018-11-11T11:47:30.936Z,45
2018-11-11T11:48:40.577Z,45
2018-11-11T11:49:50.692Z,50
2018-11-11T11:51:00.834Z,55
2018-11-11T11:52:10.897Z,65
2018-11-11T11:53:21.036Z,75
2018-11-11T11:54:31.169Z,85
2018-11-11T11:55:41.304Z,95
2018-11-11T11:56:51.432Z,95
2018-11-11T11:58:01.891Z,90
2018-11-11T11:59:12.101Z,80
2018-11-11T12:00:21.957Z,70
2018-11-11T12:01:31.878Z,65
2018-11-11T12:02:41.464Z,65
2018-11-11T12:03:51.847Z,65
2018-11-11T12:05:01.983Z,70
2018-11-11T12:06:11.839Z,70
2018-11-11T12:07:21.419Z,75
2018-11-11T12:08:31.668Z,70
2018-11-11T12:09:41.689Z,75
2018-11-11T12:10:51.815Z,70
2018-11-11T12:12:01.674Z,70
2018-11-11T12:13:11.536Z,70
2018-11-11T12:14:21.115Z,60
2018-11-11T12:15:31.075Z,60
2018-11-11T12:16:40.693Z,55
2018-11-11T12:17:50.309Z,50
2018-11-11T12:19:00.165Z,40
2018-11-11T12:20:10.020Z,45
2018-11-11T12:21:19.928Z,45
2018-11-11T12:22:30.059Z,45
2018-11-11T12:23:39.645Z,45
2018-11-11T12:24:48.963Z,50
2018-11-11T12:25:58.813Z,40
2018-11-11T12:27:08.444Z,45
2018-11-11T12:28:18.308Z,45
2018-11-11T12:29:28.443Z,50
2018-11-11T12:30:38.145Z,60
2018-11-11T12:31:47.715Z,65
2018-11-11T12:32:57.624Z,65
2018-11-11T12:34:07.473Z,65
2018-11-11T12:35:17.653Z,65
2018-11-11T12:36:27.777Z,70
2018-11-11T12:37:37.906Z,75
2018-11-11T12:38:48.168Z,75
2018-11-11T12:39:59.418Z,70
2018-11-11T12:41:09.173Z,65
2018-11-11T12:42:19.307Z,60
2018-11-11T12:43:29.607Z,55
2018-11-11T12:44:39.683Z,55
2018-11-11T12:45:49.882Z,50
2018-11-11T12:47:00.457Z,45
2018-11-11T12:48:10.401Z,45
2018-11-11T12:49:20.835Z,40
2018-11-11T12:50:31.804Z,35
2018-11-11T12:51:41.625Z,35
2018-11-11T12:52:51.537Z,35
2018-11-11T12:54:01.662Z,35
2018-11-11T12:55:11.421Z,30
2018-11-11T12:56:21.632Z,30
2018-11-11T12:57:31.207Z,35
2018-11-11T12:58:41.339Z,30
2018-11-11T12:59:51.197Z,35
2018-11-11T13:01:01.615Z,35
2018-11-11T13:02:11.514Z,35
2018-11-11T13:03:21.364Z,35
2018-11-11T13:04:31.035Z,35
2018-11-11T13:05:40.900Z,35
2018-11-11T13:06:51.026Z,35
2018-11-11T13:08:01.613Z,35
2018-11-11T13:09:11.197Z,35
2018-11-11T13:10:20.776Z,35
2018-11-11T13:11:31.291Z,30
2018-11-11T13:12:41.179Z,30
2018-11-11T13:13:51.184Z,35
2018-11-11T13:15:01.046Z,30
2018-11-11T13:16:10.626Z,30
2018-11-11T13:17:20.204Z,35
2018-11-11T13:18:30.333Z,30
2018-11-11T13:19:40.324Z,25
2018-11-11T13:20:49.875Z,25
2018-11-11T13:22:00.295Z,20
2018-11-11T13:23:10.547Z,25
2018-11-11T13:24:20.124Z,30
2018-11-11T13:25:30.023Z,25
2018-11-11T13:26:39.875Z,25
2018-11-11T13:27:49.725Z,25
2018-11-11T13:28:59.575Z,25
2018-11-11T13:30:09.160Z,20
2018-11-11T13:31:18.787Z,20
2018-11-11T13:32:28.923Z,20
2018-11-11T13:33:39.046Z,20
2018-11-11T13:34:48.902Z,20
2018-11-11T13:35:59.036Z,20
2018-11-11T13:37:09.162Z,20
2018-11-11T13:38:19.608Z,25
2018-11-11T13:39:29.822Z,25
2018-11-11T13:40:39.688Z,20
2018-11-11T13:41:49.544Z,20
2018-11-11T13:42:59.724Z,20
2018-11-11T13:44:09.871Z,15
2018-11-11T13:45:20.005Z,15
2018-11-11T13:46:30.931Z,15
2018-11-11T13:47:41.089Z,15
2018-11-11T13:48:50.990Z,10
2018-11-11T13:50:00.584Z,10
2018-11-11T13:51:10.717Z,10
2018-11-11T13:52:20.953Z,10
2018-11-11T13:53:31.092Z,10
2018-11-11T13:54:40.722Z,10
2018-11-11T13:55:51.251Z,10
2018-11-11T13:57:00.898Z,10
2018-11-11T13:58:11.028Z,10
2018-11-11T13:59:20.885Z,10
2018-11-11T14:00:31.021Z,10
2018-11-11T14:01:41.732Z,10
2018-11-11T14:02:51.718Z,5
2018-11-11T14:04:01.859Z,5
2018-11-11T14:05:11.440Z,5
2018-11-11T14:06:20.791Z,5
2018-11-11T14:07:30.927Z,5
2018-11-11T14:08:40.778Z,5
2018-11-11T14:09:50.628Z,5
2018-11-11T14:11:01.311Z,5
2018-11-11T14:12:10.737Z,5
2018-11-11T14:13:20.864Z,5
2018-11-11T14:14:30.718Z,5
2018-11-11T14:15:40.861Z,5
2018-11-11T14:16:50.166Z,5
2018-11-11T14:18:00.837Z,5
2018-11-11T14:19:12.568Z,5
2018-11-11T14:20:22.991Z,5
2018-11-11T14:21:33.191Z,5
2018-11-11T14:22:43.332Z,5
2018-11-11T14:23:53.834Z,5
2018-11-11T14:25:04.081Z,5
2018-11-11T14:26:13.746Z,5
2018-11-11T14:27:23.667Z,5
2018-11-11T14:28:33.521Z,5
2018-11-11T14:29:43.428Z,5
2018-11-11T14:30:53.570Z,5
2018-11-11T14:32:03.229Z,5
2018-11-11T14:33:12.809Z,5
2018-11-11T14:34:22.779Z,5
2018-11-11T14:35:32.632Z,5
2018-11-11T14:36:42.492Z,5
2018-11-11T14:37:52.621Z,0
2018-11-11T14:39:02.746Z,5
2018-11-11T14:40:12.330Z,5
2018-11-11T14:41:22.005Z,0
2018-11-11T14:42:31.864Z,0
2018-11-11T14:43:41.998Z,0
2018-11-11T14:44:51.300Z,0
2018-11-11T14:46:01.770Z,0
2018-11-11T14:47:11.650Z,0
2018-11-11T14:48:21.227Z,0
2018-11-11T14:49:30.819Z,0
2018-11-11T14:50:40.675Z,0
2018-11-11T14:51:50.850Z,0
2018-11-11T14:53:01.438Z,0
2018-11-11T14:54:11.644Z,0
2018-11-11T14:55:22.077Z,0
2018-11-11T14:56:32.264Z,0
2018-11-11T14:57:41.569Z,0
2018-11-11T14:58:52.511Z,0
2018-11-11T15:00:01.918Z,0
2018-11-11T15:01:11.832Z,0
2018-11-11T15:02:22.460Z,0
2018-11-11T15:03:32.675Z,0
2018-11-11T15:04:42.576Z,0
2018-11-11T15:05:52.702Z,0
2018-11-11T15:07:02.836Z,0
2018-11-11T15:08:13.548Z,0
2018-11-11T15:09:23.677Z,0
2018-11-11T15:10:33.858Z,0
2018-11-11T15:11:44.002Z,0
2018-11-11T15:12:53.672Z,0
2018-11-11T15:14:02.932Z,0
2018-11-11T15:15:13.067Z,0
2018-11-11T15:16:23.300Z,0
2018-11-11T15:17:33.429Z,0
2018-11-11T15:18:43.287Z,0
2018-11-11T15:19:53.355Z,0
2018-11-11T15:21:04.018Z,0
2018-11-11T15:22:14.230Z,0
2018-11-11T15:23:24.356Z,0
2018-11-11T15:24:34.494Z,0
2018-11-11T15:25:44.626Z,0
2018-11-11T15:26:54.202Z,0
2018-11-11T15:28:04.391Z,0
2018-11-11T15:29:14.241Z,0
2018-11-11T15:30:24.395Z,0
2018-11-11T15:31:33.769Z,0
2018-11-11T15:32:43.912Z,0
2018-11-11T15:33:53.767Z,0
2018-11-11T15:35:03.631Z,0
2018-11-11T15:36:13.758Z,0
2018-11-11T15:37:23.885Z,0
2018-11-11T15:38:34.014Z,0
2018-11-11T15:39:43.882Z,0
2018-11-11T15:40:53.746Z,0
2018-11-11T15:42:03.874Z,0
2018-11-11T15:43:14.015Z,0
2018-11-11T15:44:24.142Z,0
2018-11-11T15:45:34.332Z,0
2018-11-11T15:46:44.480Z,0
2018-11-11T15:47:54.346Z,0
2018-11-11T15:49:04.207Z,0
2018-11-11T15:50:14.341Z,0
2018-11-11T15:51:24.517Z,0
2018-11-11T15:52:34.542Z,0
2018-11-11T15:53:44.679Z,0
2018-11-11T15:54:54.801Z,0
2018-11-11T15:56:04.652Z,0
2018-11-11T15:57:14.563Z,0
2018-11-11T15:58:24.415Z,0
2018-11-11T15:59:34.527Z,0
2018-11-11T16:00:44.662Z,0
2018-11-11T16:01:54.806Z,0
2018-11-11T16:03:05.051Z,0
2018-11-11T16:04:14.356Z,0
2018-11-11T16:05:24.214Z,0
2018-11-11T16:06:35.590Z,0
2018-11-11T16:07:45.736Z,0
2018-11-11T16:08:55.918Z,0
2018-11-11T16:10:05.495Z,0
2018-11-11T16:11:15.622Z,0
2018-11-11T16:12:25.476Z,0
2018-11-11T16:13:35.619Z,0
2018-11-11T16:14:45.525Z,0
2018-11-11T16:15:55.104Z,0
2018-11-11T16:17:04.681Z,0
2018-11-11T16:18:14.823Z,0
2018-11-11T16:19:24.960Z,0
2018-11-11T16:20:35.736Z,0
2018-11-11T16:21:45.869Z,0
2018-11-11T16:22:55.764Z,0
2018-11-11T16:24:05.622Z,0
2018-11-11T16:25:15.517Z,0
2018-11-11T16:26:25.428Z,0
2018-11-11T16:27:35.301Z,0
2018-11-11T16:28:45.425Z,0
2018-11-11T16:29:55.310Z,0
2018-11-11T16:31:05.439Z,0
2018-11-11T16:32:15.159Z,0
2018-11-11T16:33:24.746Z,0
2018-11-11T16:34:34.892Z,0
2018-11-11T16:35:44.797Z,0
2018-11-11T16:36:54.982Z,0
2018-11-11T16:38:05.174Z,0
2018-11-11T16:39:15.341Z,0
2018-11-11T16:40:25.033Z,0
2018-11-11T16:41:36.897Z,0
2018-11-11T16:42:47.633Z,0
2018-11-11T16:43:58.153Z,0
2018-11-11T16:45:07.865Z,0
2018-11-11T16:46:17.955Z,0
2018-11-11T16:47:27.487Z,0
2018-11-11T16:48:37.619Z,0
2018-11-11T16:49:47.846Z,0
2018-11-11T16:50:57.981Z,0
2018-11-11T16:52:08.107Z,0
2018-11-11T16:53:18.121Z,0
2018-11-11T16:54:28.055Z,0
2018-11-11T16:55:38.603Z,0
2018-11-11T16:56:48.731Z,0
2018-11-11T16:57:58.872Z,0
2018-11-11T16:59:08.722Z,0
2018-11-11T17:00:18.858Z,0
2018-11-11T17:01:28.816Z,0